Time;durP1;ratioP1;P1;durP2;ratioP2;P2;SDS_P1;SDS_P2;PMS_P1;PMS_P2;Temp;Humidity;BMP_temperature;BMP_pressure;BME280_temperature;BME280_humidity;BME280_pressure;Samples;Min_cycle;Max_cycle;Signal;HPM_P1;HPM_P2
2024/01/16 00:02:22;;;;;;;0.60;0.60;;;0.70;99.90;;;;;;5061381;28;20085;-72
2024/01/16 00:04:48;;;;;;;0.10;0.10;;;0.70;99.90;;;;;;5087651;28;20059;-72
2024/01/16 00:07:14;;;;;;;1.65;0.40;;;0.60;99.90;;;;;;5062533;28;20041;-74
2024/01/16 00:09:39;;;;;;;0.68;0.68;;;0.60;99.90;;;;;;5068178;28;20036;-72
2024/01/16 00:12:05;;;;;;;0.10;0.10;;;0.50;99.90;;;;;;5062063;28;20040;-73
2024/01/16 00:14:35;;;;;;;0.10;0.10;;;0.40;99.90;;;;;;5057391;28;20395;-73
2024/01/16 00:17:00;;;;;;;0.10;0.10;;;0.40;99.90;;;;;;5068657;28;20040;-71
2024/01/16 00:19:26;;;;;;;0.10;0.10;;;0.30;99.90;;;;;;5064043;28;20032;-72
2024/01/16 00:21:51;;;;;;;0.10;0.10;;;0.30;99.90;;;;;;5063277;28;20078;-72
2024/01/16 00:24:17;;;;;;;0.10;0.10;;;0.20;99.90;;;;;;5056706;28;20052;-72
2024/01/16 00:26:43;;;;;;;0.20;0.20;;;0.20;99.90;;;;;;5060250;28;20506;-74
2024/01/16 00:29:09;;;;;;;0.10;0.10;;;0.20;99.90;;;;;;5065280;28;20098;-72
2024/01/16 00:31:34;;;;;;;0.10;0.10;;;0.20;99.90;;;;;;5079754;28;20036;-73
2024/01/16 00:34:00;;;;;;;0.10;0.10;;;0.20;99.90;;;;;;5060351;28;20045;-75
2024/01/16 00:36:26;;;;;;;0.17;0.17;;;0.10;99.90;;;;;;5063841;28;20495;-71
2024/01/16 00:38:51;;;;;;;0.10;0.10;;;0.10;99.90;;;;;;5062417;28;20033;-72
2024/01/16 00:41:17;;;;;;;0.20;0.20;;;0.00;99.90;;;;;;5062017;28;20167;-75
2024/01/16 00:43:46;;;;;;;0.10;0.10;;;-0.10;99.90;;;;;;5063251;28;20609;-72
2024/01/16 00:46:11;;;;;;;0.10;0.10;;;-0.10;99.90;;;;;;5063833;28;20438;-73
2024/01/16 00:48:37;;;;;;;0.10;0.10;;;-0.20;99.90;;;;;;5060253;28;20036;-74
2024/01/16 00:51:03;;;;;;;0.10;0.10;;;-0.20;99.90;;;;;;5087697;28;20361;-76
2024/01/16 00:53:28;;;;;;;0.10;0.10;;;-0.30;99.90;;;;;;5083545;28;20488;-75
2024/01/16 00:55:54;;;;;;;0.10;0.10;;;-0.30;99.90;;;;;;5064942;28;20040;-71
2024/01/16 00:58:23;;;;;;;0.15;0.15;;;-0.20;99.90;;;;;;5059419;28;20044;-72
2024/01/16 01:00:49;;;;;;;0.10;0.10;;;-0.30;99.90;;;;;;5064877;28;20079;-72
2024/01/16 01:03:14;;;;;;;0.10;0.10;;;-0.30;99.90;;;;;;5083525;28;20439;-74
2024/01/16 01:05:40;;;;;;;0.10;0.10;;;-0.30;99.90;;;;;;5064306;28;20379;-71
2024/01/16 01:08:06;;;;;;;0.10;0.10;;;-0.30;99.90;;;;;;5064020;28;20044;-73
2024/01/16 01:10:31;;;;;;;0.10;0.10;;;-0.30;99.90;;;;;;5068252;28;20037;-71
2024/01/16 01:12:57;;;;;;;0.10;0.10;;;-0.40;99.90;;;;;;5058146;28;20041;-73
2024/01/16 01:15:22;;;;;;;1.35;1.08;;;-0.30;99.90;;;;;;5062452;28;20163;-73
2024/01/16 01:17:49;;;;;;;0.10;0.10;;;-0.30;99.90;;;;;;5068481;28;20045;-73
2024/01/16 01:20:15;;;;;;;0.20;0.20;;;-0.40;99.90;;;;;;5065957;28;20036;-72
2024/01/16 01:22:40;;;;;;;0.10;0.10;;;-0.40;99.90;;;;;;5044919;28;20044;-76
2024/01/16 01:25:07;;;;;;;0.10;0.10;;;-0.50;99.90;;;;;;5063220;28;20028;-73
2024/01/16 01:27:32;;;;;;;0.10;0.10;;;-0.50;99.90;;;;;;5067815;28;20479;-75
2024/01/16 01:29:58;;;;;;;0.10;0.10;;;-0.50;99.90;;;;;;5060226;28;20039;-73
2024/01/16 01:32:24;;;;;;;0.00;0.00;;;-0.50;99.90;;;;;;5067915;28;20040;-75
2024/01/16 01:34:49;;;;;;;0.20;0.20;;;-0.50;99.90;;;;;;5060739;28;20045;-74
2024/01/16 01:37:15;;;;;;;0.95;0.95;;;-0.50;99.90;;;;;;5062245;28;20044;-74
2024/01/16 01:39:40;;;;;;;0.10;0.10;;;-0.30;99.90;;;;;;5062475;28;20052;-72
2024/01/16 01:42:06;;;;;;;0.13;0.13;;;-0.40;99.90;;;;;;5067695;28;20036;-71
2024/01/16 01:44:31;;;;;;;0.08;0.08;;;-0.30;99.90;;;;;;5041940;28;20047;-74
2024/01/16 01:46:58;;;;;;;0.57;0.57;;;-0.30;99.90;;;;;;5067190;28;20043;-72
2024/01/16 01:49:25;;;;;;;0.10;0.10;;;-0.20;99.90;;;;;;5059663;28;20396;-73
2024/01/16 01:51:50;;;;;;;0.10;0.10;;;-0.20;99.90;;;;;;5089523;28;20032;-72
2024/01/16 01:54:18;;;;;;;0.10;0.10;;;-0.10;99.90;;;;;;5044817;28;20060;-72
2024/01/16 01:56:46;;;;;;;0.10;0.10;;;-0.10;99.90;;;;;;5060547;28;20040;-73
2024/01/16 01:59:13;;;;;;;0.32;0.32;;;-0.10;99.90;;;;;;5059001;28;20078;-72
2024/01/16 02:01:40;;;;;;;0.10;0.10;;;0.00;99.90;;;;;;5076782;28;20538;-72
2024/01/16 02:04:06;;;;;;;0.10;0.10;;;-0.10;99.90;;;;;;5063310;28;20044;-74
2024/01/16 02:06:32;;;;;;;0.10;0.10;;;-0.10;99.90;;;;;;5063559;28;20448;-75
2024/01/16 02:08:59;;;;;;;0.17;0.17;;;0.00;99.90;;;;;;5062638;28;20040;-72
2024/01/16 02:11:25;;;;;;;0.10;0.10;;;-0.10;99.90;;;;;;5067520;28;20050;-73
2024/01/16 02:13:50;;;;;;;0.10;0.10;;;0.00;99.90;;;;;;5058608;28;20045;-74
2024/01/16 02:16:23;;;;;;;0.10;0.10;;;0.00;99.90;;;;;;5059696;28;20047;-73
2024/01/16 02:18:50;;;;;;;0.15;0.15;;;-0.10;99.90;;;;;;5061098;28;20480;-71
2024/01/16 02:21:21;;;;;;;0.10;0.10;;;-0.10;99.90;;;;;;5063110;28;20040;-74
2024/01/16 02:23:47;;;;;;;0.10;0.10;;;-0.20;99.90;;;;;;5057003;28;20044;-74
2024/01/16 02:26:17;;;;;;;0.10;0.10;;;-0.20;99.90;;;;;;5061064;28;20047;-71
2024/01/16 02:28:42;;;;;;;0.10;0.10;;;-0.20;99.90;;;;;;5062610;28;20127;-72
2024/01/16 02:31:08;;;;;;;0.10;0.10;;;-0.20;99.90;;;;;;5062751;28;20163;-74
2024/01/16 02:33:33;;;;;;;0.40;0.40;;;-0.20;99.90;;;;;;5064470;28;20044;-72
2024/01/16 02:35:59;;;;;;;0.10;0.10;;;-0.30;99.90;;;;;;5064193;28;20479;-72
2024/01/16 02:38:25;;;;;;;0.20;0.20;;;-0.30;99.90;;;;;;5061508;28;20118;-71
2024/01/16 02:40:51;;;;;;;0.10;0.10;;;-0.50;99.90;;;;;;5069927;28;20060;-70
2024/01/16 02:43:16;;;;;;;0.10;0.10;;;-0.40;99.90;;;;;;5065201;28;20048;-72
2024/01/16 02:45:42;;;;;;;0.10;0.10;;;-0.50;99.90;;;;;;5066197;28;20502;-69
2024/01/16 02:48:08;;;;;;;0.10;0.10;;;-0.40;99.90;;;;;;5059721;28;20051;-69
2024/01/16 02:50:33;;;;;;;0.10;0.10;;;-0.40;99.90;;;;;;5065568;28;20044;-70
2024/01/16 02:52:59;;;;;;;0.10;0.10;;;-0.30;99.90;;;;;;5070357;28;20029;-69
2024/01/16 02:55:25;;;;;;;0.10;0.10;;;-0.10;99.90;;;;;;5063145;28;20049;-69
2024/01/16 02:57:50;;;;;;;0.65;0.65;;;-0.10;99.90;;;;;;5066219;28;20050;-69
2024/01/16 03:00:17;;;;;;;0.10;0.10;;;0.10;99.90;;;;;;5065709;28;20042;-69
2024/01/16 03:02:43;;;;;;;0.20;0.20;;;0.10;99.90;;;;;;5066260;28;20041;-69
2024/01/16 03:05:10;;;;;;;0.10;0.10;;;0.10;99.90;;;;;;5060916;28;20044;-69
2024/01/16 03:07:36;;;;;;;0.20;0.20;;;0.10;99.90;;;;;;5066213;28;20036;-69
2024/01/16 03:10:02;;;;;;;0.17;0.17;;;0.00;99.90;;;;;;5047814;28;20391;-70
2024/01/16 03:12:28;;;;;;;0.10;0.10;;;-0.10;99.90;;;;;;5076539;28;20461;-70
2024/01/16 03:14:54;;;;;;;0.10;0.10;;;-0.10;99.90;;;;;;5062178;28;20148;-70
2024/01/16 03:17:19;;;;;;;0.20;0.20;;;-0.20;99.90;;;;;;5064382;28;20040;-70
2024/01/16 03:19:45;;;;;;;0.10;0.10;;;-0.30;99.90;;;;;;5064712;28;20503;-70
2024/01/16 03:22:10;;;;;;;0.10;0.10;;;-0.50;99.90;;;;;;5067748;28;20068;-69
2024/01/16 03:24:36;;;;;;;0.10;0.10;;;-0.50;99.90;;;;;;5062267;28;20515;-69
2024/01/16 03:27:02;;;;;;;0.40;0.40;;;-0.60;99.90;;;;;;5062581;28;20048;-69
2024/01/16 03:29:27;;;;;;;0.10;0.10;;;-0.70;99.90;;;;;;5062943;28;20283;-69
2024/01/16 03:31:53;;;;;;;0.10;0.10;;;-0.70;99.90;;;;;;5050877;28;20052;-69
2024/01/16 03:34:19;;;;;;;0.20;0.20;;;-0.80;99.90;;;;;;5063759;28;20044;-69
2024/01/16 03:36:44;;;;;;;0.20;0.20;;;-0.80;99.90;;;;;;5066524;28;20252;-69
2024/01/16 03:39:11;;;;;;;0.10;0.10;;;-0.90;99.90;;;;;;5062562;28;20041;-69
2024/01/16 03:41:37;;;;;;;0.10;0.10;;;-0.90;99.90;;;;;;5072075;28;20040;-69
2024/01/16 03:44:03;;;;;;;0.98;0.73;;;-0.90;99.90;;;;;;5059972;28;20040;-69
2024/01/16 03:46:29;;;;;;;0.10;0.10;;;-1.00;99.90;;;;;;5065636;28;20139;-69
2024/01/16 03:48:54;;;;;;;0.10;0.10;;;-1.00;99.90;;;;;;5064863;28;20037;-69
2024/01/16 03:51:20;;;;;;;0.00;0.00;;;-1.00;99.90;;;;;;5069780;28;20037;-69
2024/01/16 03:53:46;;;;;;;0.63;0.63;;;-0.90;99.90;;;;;;5066808;28;20433;-69
2024/01/16 03:56:11;;;;;;;0.00;0.00;;;-1.00;99.90;;;;;;5063993;28;20106;-69
2024/01/16 03:58:39;;;;;;;0.10;0.10;;;-1.00;99.90;;;;;;5047146;28;20050;-70
2024/01/16 04:01:05;;;;;;;0.10;0.10;;;-0.90;99.90;;;;;;5064082;28;20032;-70
2024/01/16 04:03:30;;;;;;;0.30;0.30;;;-0.90;99.90;;;;;;5068178;28;20043;-71
2024/01/16 04:05:56;;;;;;;1.92;0.20;;;-0.90;99.90;;;;;;5061931;28;20080;-69
2024/01/16 04:08:21;;;;;;;0.10;0.10;;;-0.90;99.90;;;;;;5068193;28;20044;-71
2024/01/16 04:10:47;;;;;;;0.30;0.30;;;-0.80;99.90;;;;;;5065233;28;20067;-71
2024/01/16 04:13:12;;;;;;;0.10;0.10;;;-0.80;99.90;;;;;;5060824;28;20297;-72
2024/01/16 04:15:39;;;;;;;0.10;0.10;;;-0.80;99.90;;;;;;5064699;28;20102;-70
2024/01/16 04:18:04;;;;;;;0.10;0.10;;;-0.80;99.90;;;;;;5061168;28;20115;-71
2024/01/16 04:20:30;;;;;;;0.22;0.22;;;-0.80;99.90;;;;;;5068496;28;20143;-69
2024/01/16 04:22:57;;;;;;;0.28;0.28;;;-0.80;99.90;;;;;;5063228;28;20037;-70
2024/01/16 04:25:23;;;;;;;3.85;1.05;;;-0.80;99.90;;;;;;5063660;28;20037;-70
2024/01/16 04:27:49;;;;;;;0.10;0.10;;;-0.80;99.90;;;;;;5061285;28;20051;-71
2024/01/16 04:30:14;;;;;;;0.30;0.30;;;-0.70;99.90;;;;;;5046783;28;20040;-72
2024/01/16 04:32:40;;;;;;;0.10;0.10;;;-0.80;99.90;;;;;;5061901;28;20052;-70
2024/01/16 04:35:06;;;;;;;0.10;0.10;;;-0.70;99.90;;;;;;5063686;28;20075;-74
2024/01/16 04:37:32;;;;;;;0.10;0.10;;;-0.70;99.90;;;;;;5065699;28;20390;-74
2024/01/16 04:39:59;;;;;;;0.10;0.10;;;-0.80;99.90;;;;;;5068011;28;20049;-73
2024/01/16 04:42:24;;;;;;;0.20;0.20;;;-0.70;99.90;;;;;;5059620;28;20041;-72
2024/01/16 04:44:50;;;;;;;0.10;0.10;;;-0.70;99.90;;;;;;5063830;28;20413;-72
2024/01/16 04:47:15;;;;;;;0.10;0.10;;;-0.70;99.90;;;;;;5063060;28;20040;-72
2024/01/16 04:49:43;;;;;;;0.43;0.43;;;-0.70;99.90;;;;;;5066633;28;20503;-71
2024/01/16 04:52:08;;;;;;;0.13;0.13;;;-0.60;99.90;;;;;;5057663;28;20441;-70
2024/01/16 04:54:34;;;;;;;0.30;0.30;;;-0.70;99.90;;;;;;5067972;28;20094;-73
2024/01/16 04:56:59;;;;;;;0.10;0.10;;;-0.60;99.90;;;;;;5059192;28;20495;-73
2024/01/16 04:59:25;;;;;;;0.10;0.10;;;-0.60;99.90;;;;;;5066205;28;20040;-72
2024/01/16 05:01:51;;;;;;;5.18;0.35;;;-0.60;99.90;;;;;;5063289;28;20070;-70
2024/01/16 05:04:17;;;;;;;1.25;0.45;;;-0.50;99.90;;;;;;5062764;28;20049;-70
2024/01/16 05:06:42;;;;;;;0.25;0.25;;;-0.50;99.90;;;;;;5058548;28;20098;-70
2024/01/16 05:09:09;;;;;;;0.30;0.30;;;-0.60;99.90;;;;;;5064615;28;20054;-72
2024/01/16 05:11:35;;;;;;;0.15;0.15;;;-0.60;99.90;;;;;;5067144;28;20396;-71
2024/01/16 05:14:00;;;;;;;0.15;0.15;;;-0.60;99.90;;;;;;5064800;28;20282;-70
2024/01/16 05:16:27;;;;;;;0.20;0.20;;;-0.60;99.90;;;;;;5064874;28;20052;-70
2024/01/16 05:18:53;;;;;;;0.30;0.30;;;-0.60;99.90;;;;;;5064402;28;20082;-70
2024/01/16 05:21:19;;;;;;;0.10;0.10;;;-0.60;99.90;;;;;;5062444;28;20048;-73
2024/01/16 05:23:45;;;;;;;0.15;0.15;;;-0.60;99.90;;;;;;5060819;28;20045;-73
2024/01/16 05:26:10;;;;;;;0.10;0.10;;;-0.50;99.90;;;;;;5063164;28;20503;-73
2024/01/16 05:28:36;;;;;;;0.10;0.10;;;-0.50;99.90;;;;;;5062398;28;20040;-73
2024/01/16 05:31:02;;;;;;;0.32;0.32;;;-0.50;99.90;;;;;;5049851;28;20052;-75
2024/01/16 05:33:27;;;;;;;0.10;0.10;;;-0.50;99.90;;;;;;5066523;28;20043;-72
2024/01/16 05:35:53;;;;;;;8.48;0.40;;;-0.50;99.90;;;;;;5084756;28;20057;-72
2024/01/16 05:38:18;;;;;;;0.40;0.40;;;-0.50;99.90;;;;;;5057667;28;20479;-75
2024/01/16 05:40:44;;;;;;;0.10;0.10;;;-0.40;99.90;;;;;;5063645;28;20044;-76
2024/01/16 05:43:10;;;;;;;0.10;0.10;;;-0.40;99.90;;;;;;5058516;28;20650;-72
2024/01/16 05:45:35;;;;;;;0.10;0.10;;;-0.30;99.90;;;;;;5048342;28;20043;-72
2024/01/16 05:48:01;;;;;;;0.10;0.10;;;-0.30;99.90;;;;;;5062032;28;20471;-73
2024/01/16 05:50:26;;;;;;;0.10;0.10;;;-0.20;99.90;;;;;;5065667;28;20055;-75
2024/01/16 05:52:52;;;;;;;0.10;0.10;;;-0.30;99.90;;;;;;5061123;28;20041;-72
2024/01/16 05:55:17;;;;;;;0.10;0.10;;;-0.20;99.90;;;;;;5058316;28;20052;-72
2024/01/16 05:57:43;;;;;;;0.85;0.85;;;-0.20;99.90;;;;;;5065090;28;20225;-72
2024/01/16 06:00:10;;;;;;;1.50;0.15;;;-0.20;99.90;;;;;;5061088;28;20383;-75
2024/01/16 06:02:35;;;;;;;0.22;0.22;;;-0.30;99.90;;;;;;5067392;28;20039;-76
2024/01/16 06:05:02;;;;;;;0.20;0.20;;;-0.30;99.90;;;;;;5065782;28;20043;-73
2024/01/16 06:07:28;;;;;;;0.10;0.10;;;-0.30;99.90;;;;;;5062546;28;20040;-71
2024/01/16 06:09:54;;;;;;;0.17;0.17;;;-0.30;99.90;;;;;;5064866;28;20550;-77
2024/01/16 06:12:20;;;;;;;0.10;0.10;;;-0.30;99.90;;;;;;5066276;28;20130;-72
2024/01/16 06:14:45;;;;;;;0.28;0.28;;;-0.30;99.90;;;;;;5068139;28;20056;-75
2024/01/16 06:17:11;;;;;;;1.55;0.30;;;-0.40;99.90;;;;;;5060634;28;20036;-74
2024/01/16 06:19:36;;;;;;;0.10;0.10;;;-0.30;99.90;;;;;;5060580;28;20029;-74
2024/01/16 06:22:02;;;;;;;0.10;0.10;;;-0.30;99.90;;;;;;5066286;28;20033;-75
2024/01/16 06:24:28;;;;;;;0.30;0.20;;;-0.20;99.90;;;;;;5067892;28;20036;-77
2024/01/16 06:26:54;;;;;;;0.13;0.13;;;-0.20;99.90;;;;;;5066988;28;20090;-74
2024/01/16 06:29:20;;;;;;;0.40;0.40;;;-0.20;99.90;;;;;;5068647;28;20028;-77
2024/01/16 06:31:45;;;;;;;0.20;0.20;;;-0.20;99.90;;;;;;5063634;28;20037;-76
2024/01/16 06:34:11;;;;;;;0.10;0.10;;;-0.20;99.90;;;;;;5088655;28;20037;-75
2024/01/16 06:36:36;;;;;;;8.32;1.00;;;-0.10;99.90;;;;;;5050781;28;20536;-74
2024/01/16 06:39:03;;;;;;;0.32;0.32;;;-0.20;99.90;;;;;;5080643;28;20575;-74
2024/01/16 06:41:28;;;;;;;0.10;0.10;;;-0.10;99.90;;;;;;5067154;28;20044;-75
2024/01/16 06:43:54;;;;;;;0.63;0.47;;;-0.10;99.90;;;;;;5064479;28;20534;-76
2024/01/16 06:46:19;;;;;;;0.50;0.50;;;-0.10;99.90;;;;;;5064756;28;20048;-76
2024/01/16 06:48:45;;;;;;;0.10;0.10;;;-0.10;99.90;;;;;;5063918;28;20060;-76
2024/01/16 06:51:13;;;;;;;3.03;1.15;;;-0.10;99.90;;;;;;5076771;28;20482;-72
2024/01/16 06:53:39;;;;;;;0.63;0.40;;;-0.10;99.90;;;;;;5069606;28;20544;-76
2024/01/16 06:56:07;;;;;;;0.30;0.30;;;-0.10;99.90;;;;;;5064999;28;20789;-75
2024/01/16 06:58:33;;;;;;;0.40;0.40;;;0.00;99.90;;;;;;5068288;28;20033;-77
2024/01/16 07:01:00;;;;;;;0.30;0.30;;;0.00;99.90;;;;;;5065064;28;20075;-77
2024/01/16 07:03:25;;;;;;;0.32;0.32;;;0.10;99.90;;;;;;5061929;28;20400;-77
2024/01/16 07:05:51;;;;;;;0.10;0.10;;;-0.10;99.90;;;;;;5063640;28;20098;-72
2024/01/16 07:08:16;;;;;;;0.38;0.32;;;-0.10;99.90;;;;;;5063604;28;20483;-75
2024/01/16 07:10:42;;;;;;;0.20;0.20;;;-0.10;99.90;;;;;;5069244;28;20446;-77
2024/01/16 07:13:08;;;;;;;0.10;0.10;;;-0.10;99.90;;;;;;5066118;28;20051;-73
2024/01/16 07:15:33;;;;;;;0.10;0.10;;;-0.10;99.90;;;;;;5067446;28;20048;-75
2024/01/16 07:17:59;;;;;;;0.95;0.95;;;-0.10;99.90;;;;;;5058249;28;20040;-76
2024/01/16 07:20:24;;;;;;;0.10;0.10;;;-0.10;99.90;;;;;;5069811;28;20036;-79
2024/01/16 07:22:50;;;;;;;0.20;0.20;;;-0.10;99.90;;;;;;5052700;28;20033;-77
2024/01/16 07:25:15;;;;;;;0.10;0.10;;;-0.10;99.90;;;;;;5043577;28;20036;-75
2024/01/16 07:27:42;;;;;;;0.47;0.22;;;0.00;99.90;;;;;;5060856;28;20040;-72
2024/01/16 07:30:08;;;;;;;0.20;0.20;;;-0.10;99.90;;;;;;5047827;28;20044;-75
2024/01/16 07:32:34;;;;;;;1.98;0.82;;;0.00;99.90;;;;;;5062086;28;20441;-78
2024/01/16 07:34:59;;;;;;;2.80;0.47;;;-0.10;99.90;;;;;;5045663;28;20049;-77
2024/01/16 07:37:25;;;;;;;0.20;0.20;;;0.00;99.90;;;;;;5065370;28;20557;-76
2024/01/16 07:39:51;;;;;;;0.43;0.43;;;0.10;99.90;;;;;;5064659;28;20551;-82
2024/01/16 07:42:16;;;;;;;0.17;0.17;;;0.10;99.90;;;;;;5050499;28;20044;-83
2024/01/16 07:44:42;;;;;;;0.10;0.10;;;0.10;99.90;;;;;;5046527;28;20040;-77
2024/01/16 07:47:07;;;;;;;0.43;0.43;;;0.10;99.90;;;;;;5065317;28;20078;-79
2024/01/16 07:49:34;;;;;;;0.75;0.50;;;0.10;99.90;;;;;;5063997;28;20040;-78
2024/01/16 07:51:59;;;;;;;0.45;0.45;;;0.10;99.90;;;;;;5061189;28;20120;-75
2024/01/16 07:54:25;;;;;;;0.28;0.28;;;0.20;99.90;;;;;;5051082;28;20753;-76
2024/01/16 07:56:52;;;;;;;0.10;0.10;;;0.20;99.90;;;;;;5059909;28;20036;-74
2024/01/16 07:59:17;;;;;;;0.20;0.20;;;0.20;99.90;;;;;;5056700;28;20086;-75
2024/01/16 08:01:43;;;;;;;0.10;0.10;;;0.20;99.90;;;;;;5065209;28;20060;-76
2024/01/16 08:04:09;;;;;;;0.45;0.45;;;0.30;99.90;;;;;;5061852;28;20087;-74
2024/01/16 08:06:34;;;;;;;0.40;0.40;;;0.20;99.90;;;;;;5064415;28;20291;-81
2024/01/16 08:09:00;;;;;;;0.80;0.30;;;0.30;99.90;;;;;;5045252;28;20467;-77
2024/01/16 08:11:25;;;;;;;3.75;1.25;;;0.20;99.90;;;;;;5089531;28;20235;-77
2024/01/16 08:13:51;;;;;;;0.38;0.38;;;0.30;99.90;;;;;;5043387;28;20048;-75
2024/01/16 08:16:16;;;;;;;3.63;0.63;;;0.30;99.90;;;;;;5059221;28;20037;-81
2024/01/16 08:18:42;;;;;;;1.67;0.88;;;0.20;99.90;;;;;;5054516;28;20547;-77
2024/01/16 08:21:08;;;;;;;0.75;0.50;;;0.30;99.90;;;;;;5067347;28;20116;-79
2024/01/16 08:23:34;;;;;;;0.20;0.20;;;0.30;99.90;;;;;;5056739;28;20492;-73
2024/01/16 08:26:00;;;;;;;0.10;0.10;;;0.30;99.90;;;;;;5056913;28;20127;-78
2024/01/16 08:28:26;;;;;;;0.13;0.13;;;0.40;99.90;;;;;;5040454;28;20373;-77
2024/01/16 08:30:52;;;;;;;1.27;0.73;;;0.30;99.90;;;;;;5057934;28;20043;-80
2024/01/16 08:33:17;;;;;;;0.10;0.10;;;0.30;99.90;;;;;;5041226;28;20262;-79
2024/01/16 08:35:43;;;;;;;0.47;0.47;;;0.40;99.90;;;;;;5057588;28;20040;-75
2024/01/16 08:38:08;;;;;;;0.35;0.35;;;0.50;99.90;;;;;;5061410;28;20044;-78
2024/01/16 08:40:34;;;;;;;0.20;0.20;;;0.60;99.90;;;;;;5067049;28;20037;-79
2024/01/16 08:43:00;;;;;;;0.32;0.32;;;0.60;99.90;;;;;;5069722;28;20509;-80
2024/01/16 08:45:28;;;;;;;0.70;0.68;;;0.60;99.90;;;;;;5062308;28;20032;-78
2024/01/16 08:47:54;;;;;;;0.32;0.32;;;0.60;99.90;;;;;;5095075;28;20051;-82
2024/01/16 08:50:19;;;;;;;0.43;0.43;;;0.70;99.90;;;;;;5056865;28;20037;-78
2024/01/16 08:52:45;;;;;;;0.20;0.20;;;0.70;99.90;;;;;;5052775;28;20041;-77
2024/01/16 08:55:10;;;;;;;0.75;0.65;;;0.70;99.90;;;;;;5052790;28;20497;-77
2024/01/16 08:57:40;;;;;;;0.30;0.30;;;0.70;99.90;;;;;;5070664;28;20040;-75
2024/01/16 09:00:07;;;;;;;0.22;0.22;;;0.80;99.90;;;;;;5063766;28;20455;-73
2024/01/16 09:02:32;;;;;;;2.63;0.70;;;0.80;99.90;;;;;;5062151;28;20061;-74
2024/01/16 09:04:58;;;;;;;1.45;0.82;;;0.80;99.90;;;;;;5068695;28;20047;-75
2024/01/16 09:07:24;;;;;;;0.75;0.38;;;0.80;99.90;;;;;;5080970;28;20032;-82
2024/01/16 09:09:50;;;;;;;0.50;0.47;;;0.80;99.90;;;;;;5060814;28;20043;-81
2024/01/16 09:12:16;;;;;;;0.30;0.30;;;0.80;99.90;;;;;;5068140;28;20111;-76
2024/01/16 09:14:41;;;;;;;0.40;0.40;;;0.80;99.90;;;;;;5063654;28;20036;-77
2024/01/16 09:17:07;;;;;;;0.55;0.55;;;0.80;99.90;;;;;;5046727;28;20495;-74
2024/01/16 09:19:33;;;;;;;8.32;1.73;;;0.90;99.90;;;;;;5058422;28;20028;-78
2024/01/16 09:21:58;;;;;;;0.47;0.47;;;0.90;99.90;;;;;;5067343;28;20441;-82
2024/01/16 09:24:24;;;;;;;0.40;0.40;;;0.90;99.90;;;;;;5048675;28;20373;-79
2024/01/16 09:26:49;;;;;;;0.35;0.35;;;0.90;99.90;;;;;;5061418;28;20037;-79
2024/01/16 09:29:16;;;;;;;0.47;0.47;;;0.80;99.90;;;;;;5070360;28;20036;-80
2024/01/16 09:31:41;;;;;;;1.02;0.63;;;0.90;99.90;;;;;;5049445;28;20051;-80
2024/01/16 09:34:07;;;;;;;0.30;0.30;;;0.80;99.90;;;;;;5071086;28;20040;-79
2024/01/16 09:36:35;;;;;;;2.72;0.93;;;0.80;99.90;;;;;;5064536;28;20024;-78
2024/01/16 09:39:02;;;;;;;0.47;0.25;;;0.80;99.90;;;;;;5065770;28;20446;-78
2024/01/16 09:41:27;;;;;;;0.20;0.20;;;0.90;99.90;;;;;;5060785;28;20041;-80
2024/01/16 09:43:53;;;;;;;0.20;0.20;;;0.90;99.90;;;;;;5068221;28;20132;-80
2024/01/16 09:46:23;;;;;;;0.22;0.15;;;0.90;99.90;;;;;;5078447;28;20047;-79
2024/01/16 09:48:52;;;;;;;0.60;0.60;;;1.10;99.90;;;;;;5072629;28;20080;-80
2024/01/16 09:51:18;;;;;;;0.13;0.13;;;1.00;99.90;;;;;;5064053;28;20068;-78
2024/01/16 09:53:43;;;;;;;0.40;0.30;;;1.10;99.90;;;;;;5070513;28;20044;-81
2024/01/16 09:56:15;;;;;;;0.17;0.17;;;1.10;99.90;;;;;;5071916;28;20557;-77
2024/01/16 09:58:42;;;;;;;0.13;0.13;;;1.20;99.90;;;;;;5064510;28;20123;-78
2024/01/16 10:01:08;;;;;;;0.82;0.50;;;1.20;99.90;;;;;;5063311;28;20499;-78
2024/01/16 10:03:35;;;;;;;0.43;0.30;;;1.20;99.90;;;;;;5071352;28;20040;-80
2024/01/16 10:06:07;;;;;;;0.10;0.10;;;1.20;99.90;;;;;;5063702;28;20032;-72
2024/01/16 10:08:33;;;;;;;;;;;1.10;99.90;;;;;;5090893;28;20113;-78
2024/01/16 10:10:59;;;;;;;2.50;1.00;;;1.10;99.90;;;;;;5053001;28;20414;-79
2024/01/16 10:13:26;;;;;;;0.20;0.20;;;1.20;99.90;;;;;;5102849;28;20412;-78
2024/01/16 10:15:55;;;;;;;0.30;0.30;;;1.20;99.90;;;;;;5065595;28;20047;-76
2024/01/16 10:18:25;;;;;;;0.17;0.17;;;1.20;99.90;;;;;;5070771;28;20491;-80
2024/01/16 10:20:53;;;;;;;4.05;0.95;;;1.20;99.90;;;;;;5092985;28;20040;-80
2024/01/16 10:23:27;;;;;;;0.10;0.10;;;1.20;99.90;;;;;;5066734;28;20414;-75
2024/01/16 10:26:06;;;;;;;0.10;0.10;;;1.20;99.90;;;;;;5069361;28;20122;-81
2024/01/16 10:28:34;;;;;;;0.75;0.75;;;1.20;99.90;;;;;;5062819;28;20083;-82
2024/01/16 10:31:04;;;;;;;0.10;0.10;;;1.20;99.90;;;;;;5063406;28;20131;-77
2024/01/16 10:33:30;;;;;;;0.47;0.47;;;1.20;99.90;;;;;;5067440;28;20040;-77
2024/01/16 10:36:12;;;;;;;0.35;0.25;;;1.30;99.90;;;;;;5066500;28;20039;-78
2024/01/16 10:38:39;;;;;;;0.10;0.10;;;1.20;99.90;;;;;;5058656;28;20039;-77
2024/01/16 10:41:25;;;;;;;1.17;0.40;;;1.20;99.90;;;;;;5066440;28;20048;-78
2024/01/16 10:44:04;;;;;;;0.60;0.40;;;1.20;99.90;;;;;;5069232;28;20095;-78
2024/01/16 10:46:30;;;;;;;0.22;0.22;;;1.20;99.90;;;;;;5068343;28;20076;-78
2024/01/16 10:49:00;;;;;;;0.20;0.20;;;1.20;99.90;;;;;;5065483;28;20079;-82
2024/01/16 10:51:30;;;;;;;0.10;0.10;;;1.20;99.90;;;;;;5062950;28;20043;-82
2024/01/16 10:53:59;;;;;;;0.52;0.47;;;1.20;99.90;;;;;;5088043;28;20049;-76
2024/01/16 10:56:29;;;;;;;0.43;0.40;;;1.20;99.90;;;;;;5071291;28;20059;-78
2024/01/16 10:59:33;;;;;;;0.10;0.10;;;1.20;99.90;;;;;;5065411;28;20045;-79
2024/01/16 11:02:01;;;;;;;0.13;0.13;;;1.20;99.90;;;;;;5069160;28;20476;-78
2024/01/16 11:04:27;;;;;;;0.10;0.10;;;1.10;99.90;;;;;;5065987;28;20090;-80
2024/01/16 11:06:54;;;;;;;0.28;0.28;;;1.10;99.90;;;;;;5102554;28;20046;-79
2024/01/16 11:09:21;;;;;;;0.10;0.10;;;1.10;99.90;;;;;;5065938;28;20078;-80
2024/01/16 11:11:47;;;;;;;0.45;0.45;;;1.00;99.90;;;;;;5049823;28;20044;-76
2024/01/16 11:14:16;;;;;;;0.30;0.30;;;1.00;99.90;;;;;;5069161;28;20111;-76
2024/01/16 11:16:43;;;;;;;0.75;0.75;;;0.90;99.90;;;;;;5061148;28;20124;-81
2024/01/16 11:19:09;;;;;;;0.20;0.20;;;0.90;99.90;;;;;;5067516;28;20388;-77
2024/01/16 11:21:37;;;;;;;4.10;0.45;;;0.90;99.90;;;;;;5051301;28;20035;-79
2024/01/16 11:24:02;;;;;;;0.10;0.10;;;0.90;99.90;;;;;;5059931;28;20427;-77
2024/01/16 11:26:34;;;;;;;0.10;0.10;;;0.90;99.90;;;;;;5069824;28;20131;-82
2024/01/16 11:29:01;;;;;;;1.45;0.90;;;0.90;99.90;;;;;;5049996;28;20763;-77
2024/01/16 11:31:34;;;;;;;0.10;0.10;;;0.90;99.90;;;;;;5067167;28;20130;-77
2024/01/16 11:34:01;;;;;;;0.85;0.52;;;1.00;99.90;;;;;;5057139;28;20051;-77
2024/01/16 11:36:51;;;;;;;0.85;0.85;;;1.00;99.90;;;;;;5061404;28;20064;-76
2024/01/16 11:39:25;;;;;;;2.08;0.73;;;1.00;99.90;;;;;;5058504;28;20525;-77
2024/01/16 11:41:57;;;;;;;0.60;0.52;;;1.00;99.90;;;;;;5059118;28;20036;-78
2024/01/16 11:44:43;;;;;;;0.38;0.38;;;1.10;99.90;;;;;;5061567;28;20028;-77
2024/01/16 11:47:16;;;;;;;0.38;0.38;;;1.00;99.90;;;;;;5069678;28;20059;-77
2024/01/16 11:49:41;;;;;;;0.35;0.20;;;1.10;99.90;;;;;;5065811;28;20048;-77
2024/01/16 11:52:07;;;;;;;0.30;0.30;;;1.10;99.90;;;;;;5067390;28;20380;-75
2024/01/16 11:54:34;;;;;;;1.48;0.88;;;1.20;99.90;;;;;;5047880;28;20033;-78
2024/01/16 11:57:18;;;;;;;0.50;0.50;;;1.20;99.90;;;;;;5068123;28;20094;-76
2024/01/16 11:59:57;;;;;;;1.98;1.13;;;1.30;99.90;;;;;;5066384;28;20036;-77
2024/01/16 12:02:29;;;;;;;0.85;0.52;;;1.30;99.90;;;;;;5066253;28;20032;-73
2024/01/16 12:05:03;;;;;;;0.73;0.73;;;1.40;99.90;;;;;;5064543;28;20047;-76
2024/01/16 12:07:29;;;;;;;0.30;0.30;;;1.40;99.90;;;;;;5088464;28;20041;-75
2024/01/16 12:10:00;;;;;;;0.45;0.40;;;1.40;99.90;;;;;;5064365;28;20556;-76
2024/01/16 12:12:25;;;;;;;0.20;0.20;;;1.50;99.90;;;;;;5070834;28;20123;-77
2024/01/16 12:14:53;;;;;;;0.30;0.30;;;1.40;99.90;;;;;;5051569;28;20550;-77
2024/01/16 12:17:20;;;;;;;0.28;0.28;;;1.50;99.90;;;;;;5051970;28;20048;-77
2024/01/16 12:19:46;;;;;;;0.75;0.73;;;1.50;99.90;;;;;;5058251;28;20460;-76
2024/01/16 12:22:18;;;;;;;0.60;0.60;;;1.50;99.90;;;;;;5058251;28;20039;-77
2024/01/16 12:24:45;;;;;;;2.33;1.45;;;1.50;99.90;;;;;;5056755;28;20040;-78
2024/01/16 12:27:10;;;;;;;0.30;0.30;;;1.60;99.90;;;;;;5055542;28;20126;-73
2024/01/16 12:29:43;;;;;;;1.55;1.00;;;1.60;99.90;;;;;;5125754;27;20390;-75
2024/01/16 12:32:10;;;;;;;0.88;0.65;;;1.60;99.90;;;;;;5098236;28;20069;-75
2024/01/16 12:34:47;;;;;;;0.20;0.20;;;1.60;99.90;;;;;;5099303;28;20035;-76
2024/01/16 12:37:13;;;;;;;1.20;0.30;;;1.60;99.90;;;;;;5107266;27;20496;-74
2024/01/16 12:39:43;;;;;;;0.45;0.45;;;1.60;99.90;;;;;;5115979;27;20075;-75
2024/01/16 12:42:10;;;;;;;0.50;0.50;;;1.60;99.90;;;;;;5101501;27;20039;-77
2024/01/16 12:44:36;;;;;;;1.08;0.50;;;1.60;99.90;;;;;;5086901;28;20067;-76
2024/01/16 12:47:02;;;;;;;0.40;0.40;;;1.50;99.90;;;;;;5086636;28;20119;-77
2024/01/16 12:49:27;;;;;;;0.28;0.20;;;1.60;99.90;;;;;;5107936;27;20040;-73
2024/01/16 12:52:25;;;;;;;1.05;0.30;;;1.60;99.90;;;;;;5106947;27;20557;-77